createdAt,value
2023-05-10T00:00:50.840Z,2.08
2023-05-10T00:03:19.116Z,1.40
2023-05-10T00:05:48.693Z,1.20
2023-05-10T00:08:16.814Z,1.15
2023-05-10T00:10:45.781Z,0.82
2023-05-10T00:13:14.051Z,1.02
2023-05-10T00:15:42.224Z,1.15
2023-05-10T00:18:10.322Z,1.00
2023-05-10T00:20:38.432Z,0.80
2023-05-10T00:23:07.839Z,0.60
2023-05-10T00:25:36.022Z,0.60
2023-05-10T00:28:04.082Z,0.60
2023-05-10T00:30:32.194Z,0.60
2023-05-10T00:33:00.308Z,0.80
2023-05-10T00:35:28.495Z,0.75
2023-05-10T00:37:56.600Z,1.00
2023-05-10T00:40:26.239Z,1.00
2023-05-10T00:42:54.431Z,0.60
2023-05-10T00:45:22.646Z,0.40
2023-05-10T00:47:50.861Z,0.50
2023-05-10T00:50:19.174Z,0.75
2023-05-10T00:52:47.287Z,0.52
2023-05-10T00:55:15.396Z,0.47
2023-05-10T00:57:45.366Z,0.60
2023-05-10T01:00:18.958Z,0.50
2023-05-10T01:02:47.460Z,0.70
2023-05-10T01:05:15.755Z,0.50
2023-05-10T01:07:43.873Z,0.65
2023-05-10T01:10:12.610Z,0.73
2023-05-10T01:12:42.890Z,0.70
2023-05-10T01:15:13.069Z,0.60
2023-05-10T01:17:42.816Z,0.60
2023-05-10T01:20:12.484Z,0.50
2023-05-10T01:23:02.173Z,0.70
2023-05-10T01:26:01.315Z,0.50
2023-05-10T01:28:46.738Z,0.65
2023-05-10T01:31:35.499Z,0.57
2023-05-10T01:34:08.955Z,0.50
2023-05-10T01:36:42.345Z,0.50
2023-05-10T01:39:14.159Z,0.77
2023-05-10T01:41:47.402Z,0.80
2023-05-10T01:44:20.701Z,0.43
2023-05-10T01:47:03.118Z,0.50
2023-05-10T01:49:36.986Z,0.50
2023-05-10T01:52:10.067Z,0.70
2023-05-10T01:54:38.888Z,0.75
2023-05-10T01:57:10.089Z,0.60
2023-05-10T01:59:41.796Z,0.63
2023-05-10T02:02:12.759Z,0.90
2023-05-10T02:04:43.427Z,0.60
2023-05-10T02:07:12.218Z,0.57
2023-05-10T02:09:40.729Z,0.50
2023-05-10T02:12:09.469Z,0.60
2023-05-10T02:14:38.487Z,0.75
2023-05-10T02:17:07.862Z,0.60
2023-05-10T02:19:38.299Z,0.50
2023-05-10T02:22:09.301Z,0.50
2023-05-10T02:24:38.217Z,0.57
2023-05-10T02:27:07.134Z,0.60
2023-05-10T02:29:35.842Z,0.70
2023-05-10T02:32:04.191Z,0.50
2023-05-10T02:34:32.552Z,0.85
2023-05-10T02:37:02.212Z,0.65
2023-05-10T02:39:32.210Z,0.77
2023-05-10T02:42:00.778Z,0.70
2023-05-10T02:44:32.030Z,0.90
2023-05-10T02:47:00.880Z,0.82
2023-05-10T02:49:28.982Z,0.95
2023-05-10T02:52:01.236Z,0.82
2023-05-10T02:54:34.375Z,1.42
2023-05-10T02:57:06.209Z,1.42
2023-05-10T02:59:34.683Z,1.50
2023-05-10T03:02:03.167Z,1.70
2023-05-10T03:04:31.276Z,2.22
2023-05-10T03:07:00.116Z,2.38
2023-05-10T03:09:28.442Z,2.33
2023-05-10T03:12:04.976Z,2.50
2023-05-10T03:14:45.611Z,2.75
2023-05-10T03:17:17.680Z,2.80
2023-05-10T03:19:50.842Z,2.77
2023-05-10T03:22:25.361Z,2.33
2023-05-10T03:24:55.457Z,3.30
2023-05-10T03:27:25.625Z,3.90
2023-05-10T03:29:53.712Z,2.75
2023-05-10T03:32:21.935Z,2.80
2023-05-10T03:34:50.025Z,2.60
2023-05-10T03:37:18.121Z,2.75
2023-05-10T03:39:46.210Z,2.45
2023-05-10T03:42:14.327Z,2.30
2023-05-10T03:44:43.771Z,2.13
2023-05-10T03:47:11.854Z,2.42
2023-05-10T03:49:39.909Z,2.42
2023-05-10T03:52:08.077Z,2.58
2023-05-10T03:54:36.172Z,2.38
2023-05-10T03:57:04.880Z,2.20
2023-05-10T03:59:33.112Z,2.72
2023-05-10T04:02:02.612Z,2.70
2023-05-10T04:04:30.780Z,3.38
2023-05-10T04:06:58.878Z,2.35
2023-05-10T04:09:26.997Z,2.75
2023-05-10T04:11:55.054Z,2.30
2023-05-10T04:14:23.196Z,3.30
2023-05-10T04:16:51.375Z,2.92
2023-05-10T04:19:21.419Z,3.65
2023-05-10T04:21:49.507Z,3.58
2023-05-10T04:24:17.597Z,3.22
2023-05-10T04:26:46.476Z,4.53
2023-05-10T04:29:14.600Z,5.20
2023-05-10T04:31:42.672Z,5.05
2023-05-10T04:34:10.994Z,5.03
2023-05-10T04:36:40.519Z,3.95
2023-05-10T04:39:08.640Z,4.00
2023-05-10T04:41:36.745Z,3.90
2023-05-10T04:44:04.984Z,3.03
2023-05-10T04:46:33.144Z,3.38
2023-05-10T04:49:01.341Z,3.28
2023-05-10T04:51:29.542Z,2.45
2023-05-10T04:54:06.047Z,2.67
2023-05-10T04:56:35.099Z,2.10
2023-05-10T04:59:03.645Z,2.72
2023-05-10T05:01:32.048Z,2.47
2023-05-10T05:04:00.314Z,2.15
2023-05-10T05:06:28.492Z,2.28
2023-05-10T05:08:57.987Z,2.00
2023-05-10T05:11:26.918Z,1.48
2023-05-10T05:13:55.136Z,2.10
2023-05-10T05:16:23.250Z,1.60
2023-05-10T05:18:51.515Z,1.80
2023-05-10T05:21:20.578Z,2.00
2023-05-10T05:23:48.709Z,1.85
2023-05-10T05:26:18.176Z,1.73
2023-05-10T05:28:46.246Z,2.60
2023-05-10T05:31:14.937Z,2.42
2023-05-10T05:33:43.723Z,2.00
2023-05-10T05:36:11.904Z,2.10
2023-05-10T05:38:40.192Z,1.92
2023-05-10T05:41:08.479Z,1.98
2023-05-10T05:43:38.659Z,2.35
2023-05-10T05:46:07.115Z,2.28
2023-05-10T05:48:35.328Z,5.20
2023-05-10T05:51:04.691Z,3.08
2023-05-10T05:53:35.059Z,2.25
2023-05-10T05:56:03.128Z,2.38
2023-05-10T05:58:31.194Z,2.40
2023-05-10T06:01:00.648Z,2.92
2023-05-10T06:03:28.809Z,2.83
2023-05-10T06:05:56.962Z,3.42
2023-05-10T06:08:25.018Z,2.65
2023-05-10T06:10:53.485Z,3.28
2023-05-10T06:13:21.995Z,3.20
2023-05-10T06:15:50.262Z,3.63
2023-05-10T06:18:19.789Z,4.00
2023-05-10T06:20:47.863Z,3.75
2023-05-10T06:23:15.925Z,4.57
2023-05-10T06:25:44.274Z,3.97
2023-05-10T06:28:12.435Z,4.32
2023-05-10T06:30:40.513Z,4.22
2023-05-10T06:33:08.623Z,4.63
2023-05-10T06:35:38.136Z,4.15
2023-05-10T06:38:06.220Z,4.50
2023-05-10T06:40:34.332Z,4.82
2023-05-10T06:43:02.412Z,5.03
2023-05-10T06:45:30.534Z,5.30
2023-05-10T06:47:58.674Z,5.03
2023-05-10T06:50:26.847Z,5.90
2023-05-10T06:52:56.512Z,6.05
2023-05-10T06:55:24.648Z,6.97
2023-05-10T06:57:52.742Z,6.88
2023-05-10T07:00:21.885Z,6.95
2023-05-10T07:02:50.161Z,6.97
2023-05-10T07:05:18.731Z,7.30
2023-05-10T07:07:47.132Z,7.32
2023-05-10T07:10:16.695Z,7.50
2023-05-10T07:12:44.812Z,7.78
2023-05-10T07:15:13.350Z,7.40
2023-05-10T07:17:43.245Z,8.18
2023-05-10T07:20:13.888Z,8.25
2023-05-10T07:22:42.012Z,8.20
2023-05-10T07:25:10.531Z,8.60
2023-05-10T07:27:39.993Z,9.02
2023-05-10T07:30:09.415Z,9.25
2023-05-10T07:32:37.708Z,10.10
2023-05-10T07:35:06.550Z,10.70
2023-05-10T07:37:34.642Z,12.13
2023-05-10T07:40:03.019Z,10.88
2023-05-10T07:42:31.098Z,11.10
2023-05-10T07:45:00.571Z,11.00
2023-05-10T07:47:28.728Z,11.60
2023-05-10T07:49:56.961Z,12.27
2023-05-10T07:52:25.035Z,12.30
2023-05-10T07:54:53.133Z,11.05
2023-05-10T07:57:21.325Z,13.25
2023-05-10T07:59:49.426Z,12.82
2023-05-10T08:02:18.891Z,12.75
2023-05-10T08:04:47.066Z,12.68
2023-05-10T08:07:15.135Z,11.38
2023-05-10T08:09:43.255Z,13.05
2023-05-10T08:12:11.598Z,12.77
2023-05-10T08:14:39.730Z,11.85
2023-05-10T08:17:07.866Z,11.85
2023-05-10T08:19:37.319Z,12.38
2023-05-10T08:22:05.559Z,11.60
2023-05-10T08:24:33.638Z,11.02
2023-05-10T08:27:01.809Z,11.55
2023-05-10T08:29:32.687Z,11.45
2023-05-10T08:32:03.731Z,10.50
2023-05-10T08:34:32.306Z,10.30
2023-05-10T08:37:02.232Z,10.30
2023-05-10T08:39:30.888Z,10.27
2023-05-10T08:42:02.440Z,10.70
2023-05-10T08:44:31.276Z,10.15
2023-05-10T08:47:00.113Z,10.73
2023-05-10T08:49:30.033Z,9.82
2023-05-10T08:51:59.145Z,11.00
2023-05-10T08:54:28.677Z,9.93
2023-05-10T08:56:56.748Z,9.43
2023-05-10T08:59:25.132Z,9.95
2023-05-10T09:01:54.569Z,9.27
2023-05-10T09:04:23.997Z,9.27
2023-05-10T09:06:52.156Z,9.18
2023-05-10T09:09:20.549Z,8.30
2023-05-10T09:11:50.173Z,8.18
2023-05-10T09:14:18.574Z,13.60
2023-05-10T09:16:46.939Z,13.60
2023-05-10T09:19:15.100Z,13.77
2023-05-10T09:21:43.244Z,14.40
2023-05-10T09:24:11.427Z,13.48
2023-05-10T09:26:50.375Z,12.43
2023-05-10T09:29:18.549Z,10.95
2023-05-10T09:31:48.497Z,10.65
2023-05-10T09:34:21.310Z,11.65
2023-05-10T09:37:02.481Z,11.15
2023-05-10T09:39:34.693Z,10.80
2023-05-10T09:42:05.907Z,12.33
2023-05-10T09:44:34.629Z,10.85
2023-05-10T09:47:03.288Z,7.35
2023-05-10T09:49:31.689Z,5.70
2023-05-10T09:52:04.775Z,5.18
2023-05-10T09:54:33.276Z,4.55
2023-05-10T09:57:02.907Z,4.10
2023-05-10T09:59:32.102Z,4.80
2023-05-10T10:02:01.286Z,5.70
2023-05-10T10:04:30.061Z,4.82
2023-05-10T10:07:02.578Z,4.80
2023-05-10T10:09:31.067Z,5.18
2023-05-10T10:12:00.023Z,7.78
2023-05-10T10:14:29.933Z,7.40
2023-05-10T10:17:06.532Z,8.23
2023-05-10T10:19:37.941Z,7.25
2023-05-10T10:22:06.770Z,7.90
2023-05-10T10:24:35.215Z,7.00
2023-05-10T10:27:11.450Z,7.07
2023-05-10T10:29:46.662Z,8.55
2023-05-10T10:32:24.447Z,8.88
2023-05-10T10:34:52.762Z,8.80
2023-05-10T10:37:21.373Z,10.02
2023-05-10T10:39:50.723Z,9.95
2023-05-10T10:42:57.281Z,9.65
2023-05-10T10:45:27.525Z,10.07
2023-05-10T10:48:23.222Z,9.48
2023-05-10T10:50:59.320Z,9.90
2023-05-10T10:53:29.338Z,8.43
2023-05-10T10:56:08.670Z,8.50
2023-05-10T10:58:37.596Z,5.72
2023-05-10T11:01:15.476Z,4.78
2023-05-10T11:04:17.377Z,4.15
2023-05-10T11:06:45.597Z,4.32
2023-05-10T11:09:14.654Z,3.72
2023-05-10T11:11:56.010Z,4.40
2023-05-10T11:14:24.527Z,4.22
2023-05-10T11:16:54.417Z,4.00
2023-05-10T11:19:22.716Z,4.15
2023-05-10T11:21:51.992Z,4.75
2023-05-10T11:24:22.455Z,4.32
2023-05-10T11:26:52.667Z,4.68
2023-05-10T11:29:21.159Z,3.97
2023-05-10T11:31:50.317Z,3.85
2023-05-10T11:34:31.212Z,4.68
2023-05-10T11:37:00.064Z,5.78
2023-05-10T11:39:28.734Z,5.93
2023-05-10T11:41:57.010Z,5.18
2023-05-10T11:44:25.197Z,4.65
2023-05-10T11:46:53.356Z,5.90
2023-05-10T11:49:21.541Z,5.35
2023-05-10T11:51:51.002Z,6.18
2023-05-10T11:54:19.095Z,5.43
2023-05-10T11:56:47.486Z,5.68
2023-05-10T11:59:16.851Z,4.05
2023-05-10T12:01:45.001Z,4.72
2023-05-10T12:04:13.383Z,4.63
2023-05-10T12:06:43.144Z,4.25
2023-05-10T12:09:12.608Z,3.97
2023-05-10T12:11:44.238Z,4.20
2023-05-10T12:14:12.956Z,4.55
2023-05-10T12:16:41.185Z,4.35
2023-05-10T12:19:09.667Z,3.67
2023-05-10T12:21:39.808Z,4.22
2023-05-10T12:24:08.151Z,3.97
2023-05-10T12:26:37.912Z,3.28
2023-05-10T12:29:16.825Z,4.28
2023-05-10T12:32:02.858Z,4.22
2023-05-10T12:34:33.860Z,4.68
2023-05-10T12:37:02.811Z,5.00
2023-05-10T12:39:41.802Z,6.10
2023-05-10T12:42:11.630Z,6.97
2023-05-10T12:44:39.766Z,8.18
2023-05-10T12:47:08.306Z,10.30
2023-05-10T12:49:36.471Z,10.52
2023-05-10T12:52:04.672Z,10.60
2023-05-10T12:54:32.736Z,8.70
2023-05-10T12:57:00.814Z,9.38
2023-05-10T12:59:30.297Z,8.15
2023-05-10T13:01:59.886Z,9.00
2023-05-10T13:04:28.038Z,6.75
2023-05-10T13:06:59.462Z,7.68
2023-05-10T13:09:27.623Z,7.68
2023-05-10T13:11:55.693Z,7.28
2023-05-10T13:14:23.842Z,7.43
2023-05-10T13:16:53.362Z,7.75
2023-05-10T13:19:21.466Z,7.78
2023-05-10T13:21:49.542Z,7.25
2023-05-10T13:24:18.033Z,8.57
2023-05-10T13:26:46.476Z,9.15
2023-05-10T13:29:14.555Z,8.63
2023-05-10T13:31:42.691Z,9.75
2023-05-10T13:34:12.162Z,9.52
2023-05-10T13:36:40.485Z,8.73
2023-05-10T13:39:09.474Z,9.23
2023-05-10T13:41:37.842Z,9.73
2023-05-10T13:44:05.975Z,8.45
2023-05-10T13:46:34.134Z,8.60
2023-05-10T13:49:03.529Z,9.02
2023-05-10T13:51:33.696Z,10.60
2023-05-10T13:54:01.790Z,11.60
2023-05-10T13:56:29.916Z,10.63
2023-05-10T13:58:59.131Z,11.75
2023-05-10T14:01:27.402Z,11.35
2023-05-10T14:03:55.766Z,12.48
2023-05-10T14:06:23.907Z,12.30
2023-05-10T14:08:53.407Z,13.20
2023-05-10T14:11:23.276Z,12.43
2023-05-10T14:13:52.600Z,12.52
2023-05-10T14:16:21.237Z,10.93
2023-05-10T14:18:49.545Z,11.88
2023-05-10T14:21:17.641Z,12.02
2023-05-10T14:23:45.845Z,11.90
2023-05-10T14:26:15.310Z,11.77
2023-05-10T14:28:43.411Z,11.73
2023-05-10T14:31:11.565Z,11.15
2023-05-10T14:33:39.697Z,11.40
2023-05-10T14:36:08.529Z,11.68
2023-05-10T14:38:36.655Z,11.10
2023-05-10T14:41:04.835Z,10.02
2023-05-10T14:43:34.658Z,11.52
2023-05-10T14:46:02.963Z,11.63
2023-05-10T14:48:31.076Z,11.30
2023-05-10T14:50:59.254Z,10.75
2023-05-10T14:53:27.399Z,11.73
2023-05-10T14:55:55.470Z,11.27
2023-05-10T14:58:24.726Z,12.10
2023-05-10T15:00:54.217Z,10.98
2023-05-10T15:03:23.405Z,12.35
2023-05-10T15:05:52.639Z,12.52
2023-05-10T15:08:20.775Z,11.90
2023-05-10T15:10:49.850Z,7.40
2023-05-10T15:13:18.018Z,6.88
2023-05-10T15:15:46.107Z,7.28
2023-05-10T15:18:15.610Z,7.15
2023-05-10T15:20:43.680Z,7.57
2023-05-10T15:23:11.782Z,9.50
2023-05-10T15:25:40.491Z,8.80
2023-05-10T15:28:08.588Z,7.95
2023-05-10T15:30:36.660Z,9.05
2023-05-10T15:33:04.815Z,7.97
2023-05-10T15:35:36.735Z,7.95
2023-05-10T15:38:04.854Z,7.93
2023-05-10T15:40:33.100Z,7.32
2023-05-10T15:43:01.169Z,8.30
2023-05-10T15:45:29.546Z,7.88
2023-05-10T15:47:57.795Z,7.50
2023-05-10T15:50:25.883Z,7.88
2023-05-10T15:52:55.444Z,7.85
2023-05-10T15:55:23.574Z,7.93
2023-05-10T15:57:51.695Z,7.75
2023-05-10T16:00:20.234Z,8.23
2023-05-10T16:02:48.370Z,7.45
2023-05-10T16:05:16.983Z,8.13
2023-05-10T16:07:45.405Z,7.18
2023-05-10T16:10:14.970Z,6.78
2023-05-10T16:12:43.089Z,7.40
2023-05-10T16:15:11.957Z,7.78
2023-05-10T16:17:40.124Z,7.38
2023-05-10T16:20:09.460Z,7.45
2023-05-10T16:22:37.548Z,8.40
2023-05-10T16:25:06.446Z,7.93
2023-05-10T16:27:36.546Z,7.38
2023-05-10T16:30:04.898Z,8.27
2023-05-10T16:32:33.042Z,7.70
2023-05-10T16:35:01.180Z,8.18
2023-05-10T16:37:29.702Z,9.30
2023-05-10T16:39:57.801Z,8.55
2023-05-10T16:42:26.213Z,9.57
2023-05-10T16:44:55.812Z,9.43
2023-05-10T16:47:26.774Z,9.32
2023-05-10T16:49:55.060Z,9.65
2023-05-10T16:52:23.868Z,10.38
2023-05-10T16:54:52.040Z,10.07
2023-05-10T16:57:20.145Z,9.80
2023-05-10T16:59:48.447Z,11.15
2023-05-10T17:02:18.046Z,11.50
2023-05-10T17:04:46.298Z,11.70
2023-05-10T17:07:14.725Z,10.82
2023-05-10T17:09:43.914Z,11.15
2023-05-10T17:12:12.295Z,11.27
2023-05-10T17:14:40.406Z,11.07
2023-05-10T17:17:08.571Z,10.65
2023-05-10T17:19:38.042Z,11.07
2023-05-10T17:22:06.129Z,11.43
2023-05-10T17:24:34.303Z,10.60
2023-05-10T17:27:03.565Z,12.18
2023-05-10T17:29:32.186Z,11.73
2023-05-10T17:32:00.656Z,10.80
2023-05-10T17:34:28.979Z,11.38
2023-05-10T17:36:58.538Z,12.30
2023-05-10T17:39:26.606Z,12.45
2023-05-10T17:41:54.917Z,12.63
2023-05-10T17:44:23.027Z,12.18
2023-05-10T17:46:51.107Z,13.80
2023-05-10T17:49:19.251Z,13.05
2023-05-10T17:51:48.154Z,11.57
2023-05-10T17:54:17.975Z,11.88
2023-05-10T17:56:46.325Z,12.32
2023-05-10T17:59:14.451Z,12.82
2023-05-10T18:01:43.083Z,12.57
2023-05-10T18:04:11.276Z,13.13
2023-05-10T18:06:39.435Z,13.45
2023-05-10T18:09:07.753Z,12.85
2023-05-10T18:11:38.814Z,13.52
2023-05-10T18:14:07.045Z,14.07
2023-05-10T18:16:35.235Z,13.35
2023-05-10T18:19:03.678Z,11.85
2023-05-10T18:21:32.730Z,11.88
2023-05-10T18:24:00.889Z,12.30
2023-05-10T18:26:28.964Z,11.73
2023-05-10T18:29:01.537Z,13.18
2023-05-10T18:31:29.892Z,12.90
2023-05-10T18:33:58.094Z,12.93
2023-05-10T18:36:26.183Z,12.85
2023-05-10T18:38:54.475Z,13.38
2023-05-10T18:41:22.715Z,13.40
2023-05-10T18:43:50.777Z,14.02
2023-05-10T18:46:20.259Z,14.38
2023-05-10T18:48:48.597Z,14.35
2023-05-10T18:51:16.663Z,14.15
2023-05-10T18:53:44.744Z,14.10
2023-05-10T18:56:13.051Z,15.55
2023-05-10T18:58:41.269Z,15.50
2023-05-10T19:01:09.402Z,14.70
2023-05-10T19:03:38.932Z,15.15
2023-05-10T19:06:07.033Z,14.98
2023-05-10T19:08:35.127Z,14.68
2023-05-10T19:11:03.480Z,14.48
2023-05-10T19:13:31.579Z,14.23
2023-05-10T19:16:04.805Z,14.23
2023-05-10T19:18:33.272Z,14.48
2023-05-10T19:21:04.691Z,12.70
2023-05-10T19:23:33.679Z,15.05
2023-05-10T19:26:02.173Z,13.98
2023-05-10T19:28:30.660Z,15.30
2023-05-10T19:30:59.815Z,14.10
2023-05-10T19:33:28.030Z,13.75
2023-05-10T19:35:56.811Z,16.38
2023-05-10T19:38:26.730Z,16.33
2023-05-10T19:40:58.169Z,14.55
2023-05-10T19:43:26.888Z,15.15
2023-05-10T19:45:55.498Z,13.80
2023-05-10T19:48:23.652Z,13.88
2023-05-10T19:50:52.485Z,14.73
2023-05-10T19:53:20.596Z,15.18
2023-05-10T19:55:50.049Z,13.63
2023-05-10T19:58:18.129Z,15.38
2023-05-10T20:00:46.248Z,14.68
2023-05-10T20:03:14.429Z,14.48
2023-05-10T20:05:42.615Z,14.32
2023-05-10T20:08:10.703Z,14.25
2023-05-10T20:10:38.879Z,16.38
2023-05-10T20:13:08.332Z,16.17
2023-05-10T20:15:36.376Z,16.17
2023-05-10T20:18:04.736Z,18.90
2023-05-10T20:20:32.886Z,17.15
2023-05-10T20:23:00.974Z,18.10
2023-05-10T20:25:29.024Z,17.58
2023-05-10T20:27:57.119Z,14.20
2023-05-10T20:30:26.834Z,15.02
2023-05-10T20:32:54.995Z,12.95
2023-05-10T20:35:23.448Z,13.48
2023-05-10T20:37:51.643Z,14.32
2023-05-10T20:40:20.292Z,16.52
2023-05-10T20:42:49.599Z,18.42
2023-05-10T20:45:17.802Z,17.40
2023-05-10T20:47:47.335Z,17.05
2023-05-10T20:50:15.754Z,17.98
2023-05-10T20:52:44.013Z,18.58
2023-05-10T20:55:12.771Z,17.92
2023-05-10T20:57:40.899Z,18.75
2023-05-10T21:00:11.848Z,19.25
2023-05-10T21:02:40.067Z,17.88
2023-05-10T21:05:10.271Z,18.55
2023-05-10T21:07:39.406Z,18.92
2023-05-10T21:10:08.803Z,20.05
2023-05-10T21:12:36.889Z,19.48
2023-05-10T21:15:05.344Z,21.20
2023-05-10T21:17:33.457Z,22.15
2023-05-10T21:20:01.542Z,23.38
2023-05-10T21:22:31.023Z,22.75
2023-05-10T21:24:59.204Z,22.52
2023-05-10T21:27:27.286Z,22.98
2023-05-10T21:29:55.398Z,23.00
2023-05-10T21:32:23.508Z,22.95
2023-05-10T21:34:51.542Z,21.52
2023-05-10T21:37:19.658Z,22.15
2023-05-10T21:39:49.105Z,21.80
2023-05-10T21:42:17.231Z,20.10
2023-05-10T21:44:45.715Z,19.58
2023-05-10T21:47:13.784Z,19.50
2023-05-10T21:49:41.895Z,20.52
2023-05-10T21:52:10.004Z,18.42
2023-05-10T21:54:39.003Z,18.30
2023-05-10T21:57:09.138Z,19.38
2023-05-10T21:59:37.219Z,18.90
2023-05-10T22:02:05.345Z,17.50
2023-05-10T22:04:33.460Z,18.20
2023-05-10T22:07:01.555Z,19.40
2023-05-10T22:09:29.715Z,19.30
2023-05-10T22:11:57.786Z,20.52
2023-05-10T22:14:27.271Z,19.70
2023-05-10T22:16:55.345Z,19.95
2023-05-10T22:19:23.428Z,20.55
2023-05-10T22:21:51.489Z,20.48
2023-05-10T22:24:19.635Z,20.75
2023-05-10T22:26:47.709Z,19.40
2023-05-10T22:29:16.148Z,19.13
2023-05-10T22:31:45.842Z,19.20
2023-05-10T22:34:13.935Z,21.50
2023-05-10T22:36:42.303Z,20.83
2023-05-10T22:39:10.418Z,21.40
2023-05-10T22:41:38.537Z,21.05
2023-05-10T22:44:06.589Z,21.30
2023-05-10T22:46:34.767Z,21.13
2023-05-10T22:49:04.335Z,21.48
2023-05-10T22:51:32.439Z,22.30
2023-05-10T22:54:00.492Z,20.80
2023-05-10T22:56:28.606Z,20.65
2023-05-10T22:58:58.044Z,21.00
2023-05-10T23:01:26.184Z,19.67
2023-05-10T23:03:54.329Z,18.33
2023-05-10T23:06:23.773Z,19.08
2023-05-10T23:08:52.051Z,17.33
2023-05-10T23:11:20.119Z,18.35
2023-05-10T23:13:48.183Z,18.48
2023-05-10T23:16:16.346Z,18.92
2023-05-10T23:18:44.582Z,18.85
2023-05-10T23:21:12.684Z,17.60
2023-05-10T23:23:42.165Z,18.42
2023-05-10T23:26:10.277Z,17.88
2023-05-10T23:28:38.372Z,19.77
2023-05-10T23:31:06.553Z,17.88
2023-05-10T23:33:34.649Z,19.02
2023-05-10T23:36:02.767Z,20.10
2023-05-10T23:38:30.880Z,19.25
2023-05-10T23:41:00.319Z,19.30
2023-05-10T23:43:28.428Z,20.35
2023-05-10T23:45:57.575Z,19.95
2023-05-10T23:48:25.927Z,20.52
2023-05-10T23:50:54.824Z,21.77
2023-05-10T23:53:22.914Z,19.60
2023-05-10T23:55:51.083Z,17.83
2023-05-10T23:58:21.283Z,17.95
